createdAt,value
2023-03-19T00:00:49.584Z,23.63
2023-03-19T00:03:37.212Z,27.95
2023-03-19T00:06:04.637Z,26.75
2023-03-19T00:08:32.369Z,28.92
2023-03-19T00:10:59.648Z,29.40
2023-03-19T00:13:27.499Z,27.05
2023-03-19T00:15:54.773Z,33.00
2023-03-19T00:18:22.421Z,29.90
2023-03-19T00:20:49.626Z,30.80
2023-03-19T00:23:17.161Z,30.02
2023-03-19T00:25:44.514Z,31.17
2023-03-19T00:28:12.195Z,28.38
2023-03-19T00:30:39.592Z,24.95
2023-03-19T00:33:07.295Z,28.75
2023-03-19T00:35:34.811Z,29.33
2023-03-19T00:38:03.018Z,26.58
2023-03-19T00:40:30.615Z,27.05
2023-03-19T00:42:58.272Z,26.33
2023-03-19T00:45:25.558Z,25.13
2023-03-19T00:47:53.154Z,23.10
2023-03-19T00:50:20.568Z,23.35
2023-03-19T00:52:48.116Z,22.70
2023-03-19T00:55:15.454Z,22.67
2023-03-19T00:57:42.984Z,22.08
2023-03-19T01:00:11.501Z,22.42
2023-03-19T01:02:39.002Z,19.15
2023-03-19T01:05:08.155Z,19.27
2023-03-19T01:07:35.989Z,23.63
2023-03-19T01:10:03.666Z,21.50
2023-03-19T01:12:31.244Z,21.85
2023-03-19T01:14:58.619Z,23.38
2023-03-19T01:17:26.468Z,17.63
2023-03-19T01:19:53.719Z,24.83
2023-03-19T01:22:21.420Z,23.60
2023-03-19T01:24:48.814Z,23.63
2023-03-19T01:27:16.497Z,24.00
2023-03-19T01:29:43.747Z,24.60
2023-03-19T01:32:11.743Z,24.50
2023-03-19T01:34:39.040Z,21.98
2023-03-19T01:37:06.591Z,22.48
2023-03-19T01:39:34.023Z,22.38
2023-03-19T01:42:03.359Z,21.92
2023-03-19T01:44:37.439Z,21.10
2023-03-19T01:47:32.244Z,22.55
2023-03-19T01:50:00.730Z,21.75
2023-03-19T01:52:34.966Z,26.73
2023-03-19T01:55:05.888Z,23.45
2023-03-19T01:57:33.666Z,25.75
2023-03-19T02:00:05.493Z,24.02
2023-03-19T02:02:35.456Z,27.35
2023-03-19T02:05:10.845Z,23.83
2023-03-19T02:07:43.115Z,26.10
2023-03-19T02:10:17.795Z,26.15
2023-03-19T02:12:45.369Z,23.67
2023-03-19T02:15:13.072Z,28.35
2023-03-19T02:17:42.362Z,27.60
2023-03-19T02:20:34.964Z,25.65
2023-03-19T02:23:42.411Z,27.52
2023-03-19T02:26:20.468Z,23.88
2023-03-19T02:28:51.550Z,27.25
2023-03-19T02:31:20.859Z,23.02
2023-03-19T02:34:28.704Z,28.70
2023-03-19T02:37:05.571Z,29.98
2023-03-19T02:39:58.038Z,28.95
2023-03-19T02:42:30.023Z,30.67
2023-03-19T02:44:58.721Z,32.28
2023-03-19T02:47:27.725Z,33.10
2023-03-19T02:49:55.314Z,35.08
2023-03-19T02:52:22.778Z,33.08
2023-03-19T02:54:50.566Z,39.28
2023-03-19T02:57:17.913Z,34.42
2023-03-19T02:59:45.505Z,39.15
2023-03-19T03:02:13.490Z,40.08
2023-03-19T03:04:41.965Z,39.53
2023-03-19T03:07:10.137Z,40.80
2023-03-19T03:09:38.017Z,38.97
2023-03-19T03:12:06.232Z,38.80
2023-03-19T03:14:33.877Z,46.60
2023-03-19T03:17:01.165Z,38.88
2023-03-19T03:19:28.779Z,37.03
2023-03-19T03:21:56.088Z,35.67
2023-03-19T03:24:24.342Z,39.75
2023-03-19T03:26:51.752Z,43.42
2023-03-19T03:29:19.546Z,35.72
2023-03-19T03:31:46.884Z,38.90
2023-03-19T03:34:14.519Z,38.55
2023-03-19T03:36:41.796Z,37.17
2023-03-19T03:39:09.447Z,33.72
2023-03-19T03:41:36.735Z,34.72
2023-03-19T03:44:04.425Z,33.58
2023-03-19T03:46:31.725Z,39.65
2023-03-19T03:48:59.246Z,32.47
2023-03-19T03:51:26.514Z,35.10
2023-03-19T03:53:54.112Z,36.22
2023-03-19T03:56:21.347Z,30.63
2023-03-19T03:58:48.895Z,35.28
2023-03-19T04:01:17.574Z,28.23
2023-03-19T04:03:45.711Z,31.77
2023-03-19T04:06:19.948Z,25.75
2023-03-19T04:08:47.937Z,29.55
2023-03-19T04:11:15.453Z,30.08
2023-03-19T04:13:42.982Z,29.45
2023-03-19T04:16:11.311Z,29.25
2023-03-19T04:18:39.123Z,27.40
2023-03-19T04:21:07.294Z,28.23
2023-03-19T04:23:35.169Z,27.17
2023-03-19T04:26:05.635Z,31.08
2023-03-19T04:28:34.170Z,26.95
2023-03-19T04:31:08.071Z,29.60
2023-03-19T04:33:36.574Z,31.60
2023-03-19T04:36:05.136Z,25.83
2023-03-19T04:38:32.978Z,32.05
2023-03-19T04:41:01.853Z,25.65
2023-03-19T04:43:30.172Z,26.25
2023-03-19T04:45:57.531Z,25.02
2023-03-19T04:48:26.618Z,24.80
2023-03-19T04:50:57.074Z,28.20
2023-03-19T04:53:25.067Z,27.45
2023-03-19T04:55:52.336Z,27.50
2023-03-19T04:58:19.855Z,30.88
2023-03-19T05:00:47.690Z,30.85
2023-03-19T05:03:16.601Z,32.53
2023-03-19T05:05:43.928Z,29.65
2023-03-19T05:08:11.772Z,30.25
2023-03-19T05:10:39.682Z,28.15
2023-03-19T05:13:07.442Z,26.00
2023-03-19T05:15:34.858Z,24.92
2023-03-19T05:18:02.474Z,26.40
2023-03-19T05:20:29.836Z,25.58
2023-03-19T05:22:57.455Z,26.20
2023-03-19T05:25:24.804Z,28.83
2023-03-19T05:27:52.526Z,23.63
2023-03-19T05:30:19.911Z,25.30
2023-03-19T05:32:47.776Z,28.42
2023-03-19T05:35:15.268Z,27.02
2023-03-19T05:37:42.949Z,26.52
2023-03-19T05:40:12.518Z,30.05
2023-03-19T05:42:40.041Z,28.25
2023-03-19T05:45:07.993Z,27.52
2023-03-19T05:47:35.629Z,26.42
2023-03-19T05:50:03.191Z,22.60
2023-03-19T05:52:31.076Z,24.65
2023-03-19T05:54:58.408Z,21.23
2023-03-19T05:57:26.751Z,22.38
2023-03-19T05:59:54.113Z,30.27
2023-03-19T06:02:22.298Z,26.42
2023-03-19T06:04:49.671Z,25.77
2023-03-19T06:07:17.194Z,24.67
2023-03-19T06:09:44.535Z,22.08
2023-03-19T06:12:12.253Z,21.65
2023-03-19T06:14:39.555Z,27.15
2023-03-19T06:17:07.392Z,24.75
2023-03-19T06:19:34.698Z,22.10
2023-03-19T06:22:02.615Z,23.35
2023-03-19T06:24:30.624Z,24.08
2023-03-19T06:26:58.330Z,23.13
2023-03-19T06:29:27.121Z,21.25
2023-03-19T06:31:57.874Z,22.35
2023-03-19T06:34:25.623Z,19.27
2023-03-19T06:36:53.979Z,18.15
2023-03-19T06:39:21.871Z,19.27
2023-03-19T06:41:49.528Z,23.33
2023-03-19T06:44:17.032Z,19.38
2023-03-19T06:46:45.219Z,19.33
2023-03-19T06:49:12.586Z,21.48
2023-03-19T06:51:40.430Z,19.52
2023-03-19T06:54:07.787Z,21.17
2023-03-19T06:56:35.498Z,19.90
2023-03-19T06:59:03.047Z,17.05
2023-03-19T07:01:30.742Z,17.00
2023-03-19T07:03:58.060Z,17.60
2023-03-19T07:06:25.612Z,15.95
2023-03-19T07:08:52.852Z,16.17
2023-03-19T07:11:20.873Z,19.50
2023-03-19T07:13:48.172Z,17.58
2023-03-19T07:16:15.782Z,17.98
2023-03-19T07:18:43.066Z,17.17
2023-03-19T07:21:10.802Z,18.05
2023-03-19T07:23:38.228Z,16.38
2023-03-19T07:26:05.867Z,18.88
2023-03-19T07:28:33.237Z,19.67
2023-03-19T07:31:00.777Z,17.85
2023-03-19T07:33:28.205Z,15.98
2023-03-19T07:35:56.034Z,17.13
2023-03-19T07:38:23.386Z,14.68
2023-03-19T07:41:01.499Z,18.80
2023-03-19T07:43:29.588Z,16.27
2023-03-19T07:45:57.509Z,16.48
2023-03-19T07:48:25.092Z,15.48
2023-03-19T07:50:54.373Z,15.07
2023-03-19T07:53:21.665Z,17.15
2023-03-19T07:55:49.349Z,16.85
2023-03-19T07:58:17.162Z,14.20
2023-03-19T08:00:48.153Z,13.45
2023-03-19T08:03:16.171Z,11.90
2023-03-19T08:05:43.736Z,11.45
2023-03-19T08:08:11.083Z,15.63
2023-03-19T08:10:39.327Z,12.70
2023-03-19T08:13:06.945Z,14.27
2023-03-19T08:15:34.915Z,12.45
2023-03-19T08:18:05.179Z,11.73
2023-03-19T08:20:33.724Z,10.60
2023-03-19T08:23:01.342Z,12.50
2023-03-19T08:25:32.514Z,13.23
2023-03-19T08:28:01.359Z,11.32
2023-03-19T08:30:29.121Z,14.40
2023-03-19T08:32:56.833Z,15.60
2023-03-19T08:35:27.126Z,16.52
2023-03-19T08:37:55.425Z,14.90
2023-03-19T08:40:23.708Z,14.15
2023-03-19T08:42:51.171Z,17.17
2023-03-19T08:45:19.221Z,17.38
2023-03-19T08:47:46.714Z,14.88
2023-03-19T08:50:14.948Z,15.65
2023-03-19T08:52:42.861Z,14.98
2023-03-19T08:55:10.870Z,15.25
2023-03-19T08:57:38.281Z,13.73
2023-03-19T09:00:07.836Z,14.57
2023-03-19T09:02:35.338Z,15.13
2023-03-19T09:05:03.493Z,16.02
2023-03-19T09:07:30.828Z,11.90
2023-03-19T09:09:58.395Z,13.68
2023-03-19T09:12:26.178Z,14.23
2023-03-19T09:14:53.812Z,12.75
2023-03-19T09:17:21.230Z,13.27
2023-03-19T09:19:48.839Z,12.57
2023-03-19T09:22:16.222Z,12.43
2023-03-19T09:24:43.887Z,11.15
2023-03-19T09:27:11.237Z,9.93
2023-03-19T09:29:38.862Z,11.52
2023-03-19T09:32:06.572Z,10.00
2023-03-19T09:34:34.268Z,8.68
2023-03-19T09:37:01.525Z,8.82
2023-03-19T09:39:29.425Z,8.63
2023-03-19T09:42:50.278Z,7.95
2023-03-19T09:45:20.530Z,7.05
2023-03-19T09:47:56.453Z,5.20
2023-03-19T09:50:32.378Z,6.50
2023-03-19T09:53:39.432Z,6.13
2023-03-19T09:56:14.860Z,6.07
2023-03-19T09:58:44.027Z,5.72
2023-03-19T10:01:35.482Z,6.50
2023-03-19T10:04:37.594Z,6.00
2023-03-19T10:07:19.145Z,9.63
2023-03-19T10:10:18.528Z,7.90
2023-03-19T10:12:58.277Z,6.85
2023-03-19T10:15:36.954Z,6.18
2023-03-19T10:18:32.719Z,5.85
2023-03-19T10:21:16.432Z,7.25
2023-03-19T10:23:49.413Z,7.40
2023-03-19T10:26:26.540Z,8.40
2023-03-19T10:29:11.390Z,5.93
2023-03-19T10:31:50.260Z,7.07
2023-03-19T10:34:36.054Z,5.78
2023-03-19T10:37:26.395Z,6.45
2023-03-19T10:40:00.318Z,7.38
2023-03-19T10:43:04.896Z,5.88
2023-03-19T10:45:38.590Z,5.82
2023-03-19T10:48:13.481Z,5.47
2023-03-19T10:50:58.241Z,5.22
2023-03-19T10:53:38.569Z,5.68
2023-03-19T10:56:19.110Z,9.68
2023-03-19T10:59:06.373Z,6.28
2023-03-19T11:01:41.443Z,4.97
2023-03-19T11:04:22.345Z,5.10
2023-03-19T11:07:06.514Z,4.72
2023-03-19T11:09:38.628Z,5.70
2023-03-19T11:12:53.228Z,5.95
2023-03-19T11:15:29.693Z,4.65
2023-03-19T11:18:01.271Z,4.65
2023-03-19T11:20:33.673Z,4.82
2023-03-19T11:23:04.248Z,4.30
2023-03-19T11:25:38.125Z,4.88
2023-03-19T11:28:15.016Z,6.03
2023-03-19T11:31:29.203Z,5.88
2023-03-19T11:34:25.059Z,4.15
2023-03-19T11:37:05.352Z,5.03
2023-03-19T11:39:54.552Z,5.50
2023-03-19T11:43:09.436Z,5.03
2023-03-19T11:45:59.626Z,4.93
2023-03-19T11:49:07.199Z,6.13
2023-03-19T11:51:50.887Z,5.32
2023-03-19T11:54:50.692Z,5.80
2023-03-19T11:57:58.042Z,4.75
2023-03-19T12:00:48.445Z,5.07
2023-03-19T12:04:08.201Z,4.85
2023-03-19T12:07:06.081Z,6.10
2023-03-19T12:09:41.866Z,6.15
2023-03-19T12:12:25.461Z,4.95
2023-03-19T12:15:42.270Z,6.43
2023-03-19T12:18:42.788Z,5.50
2023-03-19T12:21:42.063Z,6.20
2023-03-19T12:25:01.080Z,5.43
2023-03-19T12:28:00.916Z,5.65
2023-03-19T12:30:53.974Z,4.53
2023-03-19T12:33:49.359Z,5.13
2023-03-19T12:36:25.689Z,5.28
2023-03-19T12:39:15.693Z,10.55
2023-03-19T12:41:48.449Z,5.78
2023-03-19T12:44:28.908Z,6.55
2023-03-19T12:47:05.393Z,4.90
2023-03-19T12:49:52.526Z,4.97
2023-03-19T12:52:51.898Z,4.80
2023-03-19T12:55:50.504Z,5.18
2023-03-19T12:59:17.290Z,4.93
2023-03-19T13:02:25.882Z,6.20
2023-03-19T13:05:23.185Z,4.30
2023-03-19T13:08:19.785Z,6.20
2023-03-19T13:10:47.131Z,4.60
2023-03-19T13:13:40.915Z,7.68
2023-03-19T13:16:35.251Z,6.55
2023-03-19T13:19:21.549Z,5.88
2023-03-19T13:21:55.526Z,5.50
2023-03-19T13:24:28.075Z,7.13
2023-03-19T13:26:58.617Z,6.05
2023-03-19T13:29:32.266Z,5.45
2023-03-19T13:32:44.045Z,6.30
2023-03-19T13:35:36.661Z,5.95
2023-03-19T13:38:27.942Z,4.93
2023-03-19T13:41:00.430Z,7.20
2023-03-19T13:43:30.636Z,7.00
2023-03-19T13:46:13.014Z,7.82
2023-03-19T13:48:46.477Z,8.15
2023-03-19T13:51:20.354Z,7.03
2023-03-19T13:54:12.932Z,11.98
2023-03-19T13:57:08.661Z,6.43
2023-03-19T13:59:39.385Z,8.10
2023-03-19T14:02:22.056Z,8.73
2023-03-19T14:05:04.329Z,7.90
2023-03-19T14:07:41.024Z,7.72
2023-03-19T14:10:25.533Z,7.55
2023-03-19T14:13:08.495Z,6.82
2023-03-19T14:15:41.603Z,7.55
2023-03-19T14:18:19.509Z,6.28
2023-03-19T14:21:12.934Z,8.45
2023-03-19T14:23:52.716Z,7.80
2023-03-19T14:26:23.198Z,9.85
2023-03-19T14:29:08.490Z,8.40
2023-03-19T14:31:44.133Z,8.98
2023-03-19T14:34:11.784Z,8.60
2023-03-19T14:36:47.646Z,10.05
2023-03-19T14:39:29.256Z,8.52
2023-03-19T14:42:29.111Z,10.82
2023-03-19T14:45:20.210Z,11.13
2023-03-19T14:48:32.923Z,10.70
2023-03-19T14:51:27.917Z,7.30
2023-03-19T14:54:07.351Z,8.73
2023-03-19T14:56:36.815Z,9.77
2023-03-19T14:59:06.536Z,10.32
2023-03-19T15:01:41.355Z,11.98
2023-03-19T15:04:15.994Z,11.45
2023-03-19T15:07:04.573Z,9.50
2023-03-19T15:09:34.251Z,8.70
2023-03-19T15:12:13.567Z,12.38
2023-03-19T15:15:11.530Z,10.07
2023-03-19T15:17:39.499Z,9.45
2023-03-19T15:20:22.755Z,10.43
2023-03-19T15:23:01.632Z,9.48
2023-03-19T15:25:29.252Z,10.50
2023-03-19T15:28:13.772Z,11.73
2023-03-19T15:30:53.904Z,11.70
2023-03-19T15:33:40.101Z,10.02
2023-03-19T15:36:19.121Z,11.85
2023-03-19T15:39:07.416Z,10.60
2023-03-19T15:41:43.033Z,9.77
2023-03-19T15:44:42.768Z,10.27
2023-03-19T15:47:22.030Z,9.77
2023-03-19T15:50:16.422Z,9.50
2023-03-19T15:52:54.405Z,9.60
2023-03-19T15:55:25.092Z,10.98
2023-03-19T15:58:02.990Z,7.90
2023-03-19T16:00:30.763Z,9.02
2023-03-19T16:02:58.347Z,7.82
2023-03-19T16:05:32.104Z,7.45
2023-03-19T16:08:17.612Z,8.80
2023-03-19T16:10:48.651Z,9.00
2023-03-19T16:13:37.917Z,8.10
2023-03-19T16:16:23.894Z,8.35
2023-03-19T16:18:57.785Z,9.43
2023-03-19T16:21:28.206Z,8.50
2023-03-19T16:24:09.123Z,8.48
2023-03-19T16:26:43.247Z,9.15
2023-03-19T16:29:45.801Z,9.68
2023-03-19T16:32:24.180Z,16.63
2023-03-19T16:34:57.202Z,22.10
2023-03-19T16:37:45.089Z,16.55
2023-03-19T16:40:12.283Z,14.75
2023-03-19T16:42:45.276Z,12.95
2023-03-19T16:45:16.087Z,13.25
2023-03-19T16:47:52.487Z,10.00
2023-03-19T16:50:31.678Z,10.23
2023-03-19T16:53:01.386Z,10.13
2023-03-19T16:55:36.869Z,11.50
2023-03-19T16:58:11.974Z,11.07
2023-03-19T17:00:39.666Z,10.02
2023-03-19T17:03:17.337Z,10.98
2023-03-19T17:05:46.827Z,11.65
2023-03-19T17:08:15.135Z,22.15
2023-03-19T17:10:51.039Z,36.63
2023-03-19T17:13:28.469Z,54.75
2023-03-19T17:16:14.742Z,33.38
2023-03-19T17:18:44.011Z,29.10
2023-03-19T17:21:16.665Z,24.80
2023-03-19T17:23:44.373Z,24.88
2023-03-19T17:26:28.106Z,24.40
2023-03-19T17:28:57.141Z,18.88
2023-03-19T17:31:31.776Z,16.88
2023-03-19T17:34:05.959Z,16.55
2023-03-19T17:36:33.808Z,15.73
2023-03-19T17:39:01.878Z,14.30
2023-03-19T17:41:32.740Z,13.70
2023-03-19T17:44:03.237Z,15.35
2023-03-19T17:46:38.785Z,15.77
2023-03-19T17:49:12.437Z,17.17
2023-03-19T17:51:39.701Z,14.90
2023-03-19T17:54:12.721Z,14.32
2023-03-19T17:56:43.382Z,18.48
2023-03-19T17:59:11.768Z,25.60
2023-03-19T18:01:45.238Z,38.65
2023-03-19T18:04:17.305Z,45.50
2023-03-19T18:06:54.516Z,43.65
2023-03-19T18:09:28.387Z,50.25
2023-03-19T18:11:56.172Z,50.10
2023-03-19T18:14:23.829Z,47.58
2023-03-19T18:16:51.609Z,49.58
2023-03-19T18:19:30.340Z,47.60
2023-03-19T18:21:58.025Z,44.03
2023-03-19T18:24:25.807Z,44.17
2023-03-19T18:26:53.544Z,36.28
2023-03-19T18:29:21.126Z,30.10
2023-03-19T18:31:50.508Z,32.38
2023-03-19T18:34:18.770Z,28.85
2023-03-19T18:36:46.200Z,29.85
2023-03-19T18:39:15.959Z,24.73
2023-03-19T18:41:44.201Z,20.67
2023-03-19T18:44:12.464Z,29.13
2023-03-19T18:46:41.853Z,23.33
2023-03-19T18:49:36.426Z,20.77
2023-03-19T18:52:04.071Z,29.23
2023-03-19T18:54:32.314Z,33.10
2023-03-19T18:57:02.951Z,41.88
2023-03-19T18:59:33.808Z,43.60
2023-03-19T19:02:33.808Z,64.45
2023-03-19T19:05:02.175Z,65.25
2023-03-19T19:07:29.699Z,54.60
2023-03-19T19:09:57.264Z,48.45
2023-03-19T19:12:26.689Z,54.70
2023-03-19T19:14:54.558Z,54.00
2023-03-19T19:17:29.280Z,53.33
2023-03-19T19:19:57.158Z,55.92
2023-03-19T19:22:24.617Z,54.50
2023-03-19T19:24:52.229Z,61.25
2023-03-19T19:27:24.496Z,55.88
2023-03-19T19:29:53.221Z,56.60
2023-03-19T19:32:26.348Z,52.33
2023-03-19T19:34:54.570Z,46.88
2023-03-19T19:37:23.662Z,46.72
2023-03-19T19:39:51.881Z,45.38
2023-03-19T19:42:22.724Z,54.30
2023-03-19T19:44:58.956Z,50.60
2023-03-19T19:47:27.855Z,47.03
2023-03-19T19:49:56.561Z,44.22
2023-03-19T19:52:23.961Z,48.90
2023-03-19T19:54:52.058Z,45.88
2023-03-19T19:57:24.794Z,52.10
2023-03-19T19:59:54.034Z,45.03
2023-03-19T20:02:28.505Z,56.53
2023-03-19T20:04:57.981Z,56.72
2023-03-19T20:07:25.812Z,50.83
2023-03-19T20:09:53.466Z,51.10
2023-03-19T20:12:31.064Z,56.13
2023-03-19T20:14:59.638Z,51.72
2023-03-19T20:17:27.387Z,48.88
2023-03-19T20:19:55.114Z,58.28
2023-03-19T20:22:22.391Z,56.47
2023-03-19T20:24:51.523Z,65.53
2023-03-19T20:27:30.265Z,66.80
2023-03-19T20:29:57.949Z,61.90
2023-03-19T20:32:39.196Z,59.53
2023-03-19T20:35:18.308Z,54.13
2023-03-19T20:37:46.715Z,55.33
2023-03-19T20:40:15.353Z,50.63
2023-03-19T20:42:48.538Z,59.45
2023-03-19T20:45:24.494Z,60.15
2023-03-19T20:47:53.022Z,58.60
2023-03-19T20:50:33.242Z,58.78
2023-03-19T20:53:03.843Z,55.45
2023-03-19T20:55:35.363Z,53.88
2023-03-19T20:58:14.353Z,52.25
2023-03-19T21:00:42.292Z,51.20
2023-03-19T21:03:16.933Z,57.85
2023-03-19T21:05:46.782Z,54.28
2023-03-19T21:08:20.625Z,50.75
2023-03-19T21:10:49.380Z,53.05
2023-03-19T21:13:19.136Z,46.88
2023-03-19T21:15:49.834Z,44.72
2023-03-19T21:18:17.321Z,45.72
2023-03-19T21:20:51.015Z,41.80
2023-03-19T21:23:56.623Z,46.97
2023-03-19T21:26:25.076Z,45.15
2023-03-19T21:29:01.893Z,42.80
2023-03-19T21:31:29.635Z,41.20
2023-03-19T21:33:58.482Z,42.22
2023-03-19T21:36:27.676Z,41.42
2023-03-19T21:38:54.983Z,39.65
2023-03-19T21:41:36.027Z,42.55
2023-03-19T21:44:20.939Z,40.88
2023-03-19T21:46:49.449Z,38.70
2023-03-19T21:49:18.111Z,43.15
2023-03-19T21:51:46.904Z,34.20
2023-03-19T21:54:15.790Z,36.17
2023-03-19T21:56:45.953Z,35.90
2023-03-19T21:59:23.964Z,37.97
2023-03-19T22:01:51.521Z,35.08
2023-03-19T22:04:19.464Z,34.30
2023-03-19T22:06:47.176Z,33.42
2023-03-19T22:09:14.532Z,31.58
2023-03-19T22:11:42.724Z,34.88
2023-03-19T22:14:27.042Z,35.40
2023-03-19T22:16:56.751Z,37.28
2023-03-19T22:19:24.766Z,38.65
2023-03-19T22:21:52.505Z,38.08
2023-03-19T22:24:19.780Z,38.33
2023-03-19T22:26:56.457Z,36.78
2023-03-19T22:29:28.495Z,32.20
2023-03-19T22:31:56.939Z,37.65
2023-03-19T22:34:30.685Z,34.90
2023-03-19T22:36:59.644Z,33.70
2023-03-19T22:39:26.920Z,32.45
2023-03-19T22:41:54.627Z,34.00
2023-03-19T22:44:31.033Z,29.42
2023-03-19T22:47:01.790Z,31.98
2023-03-19T22:49:30.156Z,31.33
2023-03-19T22:51:58.397Z,33.33
2023-03-19T22:54:26.313Z,31.30
2023-03-19T22:56:53.870Z,29.27
2023-03-19T22:59:21.656Z,30.98
2023-03-19T23:01:49.531Z,29.73
2023-03-19T23:04:32.504Z,27.75
2023-03-19T23:07:01.233Z,29.10
2023-03-19T23:09:38.863Z,28.20
2023-03-19T23:14:36.862Z,30.05
2023-03-19T23:17:17.568Z,32.15
2023-03-19T23:19:44.960Z,27.05
2023-03-19T23:22:16.696Z,33.30
2023-03-19T23:24:44.878Z,23.60
2023-03-19T23:27:26.252Z,22.35
2023-03-19T23:29:53.814Z,27.17
2023-03-19T23:32:22.018Z,23.75
2023-03-19T23:34:59.627Z,25.52
2023-03-19T23:37:29.211Z,26.80
2023-03-19T23:39:57.742Z,25.85
2023-03-19T23:42:31.749Z,25.08
2023-03-19T23:45:03.844Z,24.08
2023-03-19T23:47:32.298Z,24.10
2023-03-19T23:49:59.589Z,26.73
2023-03-19T23:52:27.151Z,29.15
2023-03-19T23:54:54.465Z,27.25
2023-03-19T23:57:26.681Z,26.73
2023-03-19T23:59:54.214Z,32.80
